createdAt,value
2023-03-26T00:01:10.770Z,2.67
2023-03-26T00:03:39.065Z,2.80
2023-03-26T00:06:10.412Z,2.60
2023-03-26T00:08:38.444Z,2.58
2023-03-26T00:11:06.684Z,2.40
2023-03-26T00:13:34.198Z,2.42
2023-03-26T00:16:01.840Z,2.53
2023-03-26T00:18:31.936Z,2.63
2023-03-26T00:20:59.710Z,2.83
2023-03-26T00:23:28.284Z,2.60
2023-03-26T00:25:56.128Z,3.10
2023-03-26T00:28:23.927Z,3.00
2023-03-26T00:30:57.558Z,3.25
2023-03-26T00:33:24.777Z,2.63
2023-03-26T00:35:56.727Z,3.05
2023-03-26T00:38:24.083Z,2.80
2023-03-26T00:40:51.653Z,2.80
2023-03-26T00:43:19.797Z,3.20
2023-03-26T00:45:47.974Z,3.28
2023-03-26T00:48:15.788Z,2.90
2023-03-26T00:50:44.596Z,3.25
2023-03-26T00:53:12.141Z,3.13
2023-03-26T00:55:40.087Z,2.85
2023-03-26T00:58:10.270Z,3.20
2023-03-26T01:00:39.301Z,3.30
2023-03-26T01:03:06.936Z,2.85
2023-03-26T01:05:34.178Z,3.40
2023-03-26T01:08:27.542Z,2.80
2023-03-26T01:11:02.688Z,2.83
2023-03-26T01:13:32.446Z,2.85
2023-03-26T01:16:02.001Z,2.80
2023-03-26T01:18:33.861Z,3.38
2023-03-26T01:21:05.315Z,2.85
2023-03-26T01:23:38.026Z,3.20
2023-03-26T01:26:11.411Z,2.63
2023-03-26T01:28:41.306Z,2.85
2023-03-26T01:31:17.302Z,3.13
2023-03-26T01:33:54.355Z,3.13
2023-03-26T01:36:23.878Z,3.63
2023-03-26T01:39:18.660Z,3.38
2023-03-26T01:41:47.517Z,2.85
2023-03-26T01:44:22.889Z,3.63
2023-03-26T01:46:50.642Z,3.42
2023-03-26T01:49:18.893Z,3.13
2023-03-26T01:51:47.552Z,3.67
2023-03-26T01:54:17.192Z,3.05
2023-03-26T01:57:02.959Z,3.00
2023-03-26T01:59:42.058Z,3.13
2023-03-26T02:02:14.460Z,3.38
2023-03-26T02:04:53.137Z,3.53
2023-03-26T02:07:34.553Z,3.13
2023-03-26T02:10:06.077Z,3.20
2023-03-26T02:12:33.625Z,3.45
2023-03-26T02:15:02.226Z,3.67
2023-03-26T02:17:32.542Z,3.45
2023-03-26T02:20:04.818Z,3.40
2023-03-26T02:22:32.394Z,3.70
2023-03-26T02:24:59.752Z,3.35
2023-03-26T02:27:26.982Z,3.20
2023-03-26T02:29:54.386Z,3.67
2023-03-26T02:32:23.424Z,3.55
2023-03-26T02:34:53.170Z,3.30
2023-03-26T02:37:20.696Z,3.65
2023-03-26T02:39:52.954Z,3.42
2023-03-26T02:42:30.159Z,4.00
2023-03-26T02:44:57.371Z,2.95
2023-03-26T02:47:47.323Z,2.85
2023-03-26T02:50:36.671Z,3.58
2023-03-26T02:53:23.914Z,3.80
2023-03-26T02:55:58.523Z,3.65
2023-03-26T02:58:26.870Z,3.45
2023-03-26T03:00:56.071Z,4.18
2023-03-26T03:03:29.858Z,3.75
2023-03-26T03:06:18.859Z,3.63
2023-03-26T03:08:58.273Z,3.65
2023-03-26T03:11:34.096Z,3.28
2023-03-26T03:14:01.269Z,4.68
2023-03-26T03:16:30.336Z,3.88
2023-03-26T03:19:01.804Z,3.97
2023-03-26T03:21:37.285Z,4.00
2023-03-26T03:24:04.686Z,3.38
2023-03-26T03:26:36.520Z,4.10
2023-03-26T03:29:32.878Z,3.53
2023-03-26T03:32:19.709Z,3.10
2023-03-26T03:34:50.650Z,4.70
2023-03-26T03:37:19.192Z,4.60
2023-03-26T03:39:51.846Z,4.18
2023-03-26T03:42:21.847Z,3.92
2023-03-26T03:44:51.446Z,4.63
2023-03-26T03:47:57.141Z,5.07
2023-03-26T03:50:34.325Z,4.63
2023-03-26T03:53:26.387Z,6.28
2023-03-26T03:55:59.594Z,5.57
2023-03-26T03:58:45.437Z,5.13
2023-03-26T04:01:17.202Z,6.35
2023-03-26T04:03:56.072Z,5.60
2023-03-26T04:06:30.078Z,5.75
2023-03-26T04:08:57.652Z,5.97
2023-03-26T04:11:24.999Z,6.05
2023-03-26T04:14:10.243Z,6.18
2023-03-26T04:16:51.200Z,6.00
2023-03-26T04:19:18.536Z,5.68
2023-03-26T04:21:45.735Z,6.03
2023-03-26T04:24:13.632Z,6.30
2023-03-26T04:27:14.178Z,5.78
2023-03-26T04:29:43.705Z,5.75
2023-03-26T04:32:24.484Z,6.15
2023-03-26T04:34:52.439Z,5.80
2023-03-26T04:37:27.422Z,5.68
2023-03-26T04:40:10.376Z,6.68
2023-03-26T04:42:45.993Z,6.25
2023-03-26T04:45:23.450Z,6.32
2023-03-26T04:47:58.336Z,5.35
2023-03-26T04:50:26.764Z,5.22
2023-03-26T04:52:56.648Z,6.05
2023-03-26T04:56:01.936Z,6.85
2023-03-26T04:58:50.332Z,6.60
2023-03-26T05:01:17.682Z,6.28
2023-03-26T05:03:46.303Z,6.45
2023-03-26T05:06:16.249Z,6.22
2023-03-26T05:08:43.410Z,5.47
2023-03-26T05:11:18.881Z,5.88
2023-03-26T05:13:46.962Z,5.72
2023-03-26T05:16:14.709Z,6.15
2023-03-26T05:18:48.329Z,6.68
2023-03-26T05:21:16.136Z,5.93
2023-03-26T05:23:43.525Z,6.97
2023-03-26T05:26:29.226Z,5.88
2023-03-26T05:28:57.215Z,6.50
2023-03-26T05:31:32.165Z,7.10
2023-03-26T05:34:00.879Z,6.15
2023-03-26T05:36:28.695Z,7.32
2023-03-26T05:39:29.840Z,6.15
2023-03-26T05:42:16.161Z,6.25
2023-03-26T05:45:03.565Z,6.60
2023-03-26T05:47:33.286Z,5.93
2023-03-26T05:50:00.696Z,6.00
2023-03-26T05:52:28.309Z,6.28
2023-03-26T05:55:16.024Z,7.03
2023-03-26T05:58:01.900Z,6.25
2023-03-26T06:03:22.911Z,7.25
2023-03-26T06:06:08.587Z,6.60
2023-03-26T06:08:46.790Z,6.47
2023-03-26T06:11:14.196Z,6.97
2023-03-26T06:13:41.446Z,6.45
2023-03-26T06:16:09.411Z,6.63
2023-03-26T06:18:57.845Z,6.80
2023-03-26T06:21:43.746Z,6.70
2023-03-26T06:24:19.769Z,7.20
2023-03-26T06:27:12.919Z,7.65
2023-03-26T06:30:03.005Z,7.18
2023-03-26T06:32:53.416Z,7.22
2023-03-26T06:35:25.300Z,6.47
2023-03-26T06:37:52.980Z,5.93
2023-03-26T06:40:20.222Z,6.53
2023-03-26T06:43:10.189Z,6.90
2023-03-26T06:45:54.410Z,7.22
2023-03-26T06:48:42.026Z,6.57
2023-03-26T06:51:27.764Z,5.88
2023-03-26T06:54:15.295Z,6.72
2023-03-26T06:56:52.276Z,6.18
2023-03-26T06:59:22.338Z,6.10
2023-03-26T07:02:27.696Z,6.65
2023-03-26T07:05:13.817Z,6.75
2023-03-26T07:07:59.702Z,7.20
2023-03-26T07:10:45.074Z,7.32
2023-03-26T07:13:48.304Z,7.05
2023-03-26T07:19:06.388Z,6.43
2023-03-26T07:21:36.614Z,7.57
2023-03-26T07:24:11.546Z,7.53
2023-03-26T07:27:07.349Z,7.18
2023-03-26T07:29:47.109Z,7.22
2023-03-26T07:32:35.316Z,7.07
2023-03-26T07:35:22.938Z,7.80
2023-03-26T07:38:42.503Z,7.65
2023-03-26T07:41:41.580Z,7.55
2023-03-26T07:44:51.507Z,6.55
2023-03-26T07:47:42.627Z,8.38
2023-03-26T07:50:35.921Z,7.25
2023-03-26T07:53:23.445Z,7.78
2023-03-26T07:56:35.941Z,7.05
2023-03-26T07:59:26.246Z,6.50
2023-03-26T08:02:45.596Z,7.00
2023-03-26T08:05:55.160Z,7.18
2023-03-26T08:09:07.680Z,7.55
2023-03-26T08:12:21.061Z,8.05
2023-03-26T08:14:52.588Z,6.75
2023-03-26T08:17:39.974Z,7.43
2023-03-26T08:20:48.869Z,7.25
2023-03-26T08:23:51.857Z,7.20
2023-03-26T08:26:39.228Z,8.18
2023-03-26T08:29:12.566Z,8.13
2023-03-26T08:31:41.214Z,8.32
2023-03-26T08:34:12.041Z,8.02
2023-03-26T08:36:39.333Z,7.82
2023-03-26T08:39:06.581Z,8.10
2023-03-26T08:41:36.819Z,8.45
2023-03-26T08:44:16.566Z,7.57
2023-03-26T08:46:53.397Z,8.18
2023-03-26T08:49:51.626Z,8.85
2023-03-26T08:52:18.926Z,8.75
2023-03-26T08:55:04.290Z,8.20
2023-03-26T08:58:08.889Z,8.20
2023-03-26T09:00:43.523Z,9.68
2023-03-26T09:03:22.692Z,8.93
2023-03-26T09:05:49.806Z,9.55
2023-03-26T09:08:30.147Z,9.32
2023-03-26T09:11:16.730Z,8.52
2023-03-26T09:14:12.629Z,9.32
2023-03-26T09:16:58.095Z,8.90
2023-03-26T09:19:25.215Z,9.02
2023-03-26T09:22:08.200Z,8.70
2023-03-26T09:24:35.393Z,7.93
2023-03-26T09:27:14.677Z,8.45
2023-03-26T09:32:38.060Z,7.45
2023-03-26T09:35:42.109Z,8.60
2023-03-26T09:38:12.430Z,8.10
2023-03-26T09:40:53.396Z,7.82
2023-03-26T09:43:38.408Z,7.72
2023-03-26T09:46:05.560Z,7.10
2023-03-26T09:48:45.634Z,7.40
2023-03-26T09:51:26.111Z,6.80
2023-03-26T09:54:11.175Z,6.97
2023-03-26T09:56:42.110Z,6.30
2023-03-26T09:59:18.104Z,6.15
2023-03-26T10:01:59.464Z,6.53
2023-03-26T10:04:52.340Z,6.38
2023-03-26T10:07:40.939Z,6.57
2023-03-26T10:10:26.958Z,5.68
2023-03-26T10:13:11.630Z,5.65
2023-03-26T10:16:14.654Z,5.63
2023-03-26T10:18:42.201Z,5.55
2023-03-26T10:21:15.816Z,4.72
2023-03-26T10:23:42.973Z,4.68
2023-03-26T10:26:24.563Z,5.53
2023-03-26T10:28:51.740Z,4.72
2023-03-26T10:31:43.379Z,5.18
2023-03-26T10:34:28.898Z,4.40
2023-03-26T10:36:59.720Z,3.75
2023-03-26T10:39:44.932Z,4.20
2023-03-26T10:42:11.992Z,3.65
2023-03-26T10:44:43.458Z,3.35
2023-03-26T10:47:18.438Z,3.30
2023-03-26T10:50:04.056Z,3.35
2023-03-26T10:52:47.717Z,3.30
2023-03-26T10:55:19.887Z,3.20
2023-03-26T10:57:53.705Z,3.53
2023-03-26T11:00:26.118Z,3.78
2023-03-26T11:03:45.942Z,3.20
2023-03-26T11:06:27.993Z,2.88
2023-03-26T11:09:09.922Z,2.90
2023-03-26T11:11:55.912Z,2.75
2023-03-26T11:14:43.909Z,3.00
2023-03-26T11:17:41.448Z,2.83
2023-03-26T11:20:55.487Z,3.40
2023-03-26T11:24:04.715Z,3.17
2023-03-26T11:26:50.513Z,3.22
2023-03-26T11:29:32.803Z,2.88
2023-03-26T11:32:12.704Z,3.00
2023-03-26T11:34:46.008Z,2.80
2023-03-26T11:37:16.428Z,2.83
2023-03-26T11:39:51.425Z,2.85
2023-03-26T11:42:19.236Z,2.90
2023-03-26T11:45:06.568Z,2.83
2023-03-26T11:47:45.555Z,3.22
2023-03-26T11:50:17.647Z,3.95
2023-03-26T11:52:46.862Z,3.10
2023-03-26T11:55:14.499Z,3.20
2023-03-26T11:57:46.184Z,2.88
2023-03-26T12:00:19.406Z,3.03
2023-03-26T12:02:46.883Z,2.58
2023-03-26T12:05:14.053Z,2.60
2023-03-26T12:08:00.397Z,2.42
2023-03-26T12:10:37.554Z,2.80
2023-03-26T12:13:28.920Z,2.45
2023-03-26T12:16:01.901Z,2.38
2023-03-26T12:18:29.400Z,2.70
2023-03-26T12:21:04.756Z,2.70
2023-03-26T12:23:52.554Z,2.22
2023-03-26T12:26:41.392Z,2.40
2023-03-26T12:29:12.823Z,2.25
2023-03-26T12:31:53.138Z,2.55
2023-03-26T12:34:21.566Z,2.42
2023-03-26T12:36:50.427Z,2.38
2023-03-26T12:40:07.964Z,2.45
2023-03-26T12:44:46.779Z,2.08
2023-03-26T12:45:15.027Z,1.95
2023-03-26T12:48:00.460Z,1.98
2023-03-26T12:50:36.498Z,2.50
2023-03-26T12:53:09.343Z,2.00
2023-03-26T12:55:54.335Z,1.90
2023-03-26T12:58:33.800Z,1.80
2023-03-26T13:03:58.710Z,2.25
2023-03-26T13:06:59.948Z,1.83
2023-03-26T13:09:32.785Z,1.75
2023-03-26T13:12:09.187Z,1.60
2023-03-26T13:14:57.050Z,1.58
2023-03-26T13:17:28.003Z,1.65
2023-03-26T13:20:21.389Z,1.58
2023-03-26T13:23:00.758Z,1.77
2023-03-26T13:28:08.951Z,2.05
2023-03-26T13:30:48.008Z,1.92
2023-03-26T13:33:27.854Z,1.95
2023-03-26T13:36:19.198Z,2.35
2023-03-26T13:39:13.137Z,1.67
2023-03-26T13:41:49.477Z,1.95
2023-03-26T13:44:20.845Z,2.00
2023-03-26T13:46:50.743Z,1.85
2023-03-26T13:49:29.816Z,1.73
2023-03-26T13:52:00.086Z,1.48
2023-03-26T13:54:31.203Z,1.45
2023-03-26T13:57:22.888Z,1.90
2023-03-26T14:00:12.508Z,1.45
2023-03-26T14:02:53.985Z,2.20
2023-03-26T14:05:26.629Z,2.10
2023-03-26T14:07:57.278Z,1.85
2023-03-26T14:10:27.308Z,3.03
2023-03-26T14:13:01.179Z,2.65
2023-03-26T14:15:31.506Z,2.25
2023-03-26T14:18:07.888Z,2.05
2023-03-26T14:20:47.622Z,1.48
2023-03-26T14:23:46.463Z,1.20
2023-03-26T14:26:31.713Z,1.73
2023-03-26T14:29:10.803Z,2.50
2023-03-26T14:31:52.000Z,1.80
2023-03-26T14:34:30.764Z,1.63
2023-03-26T14:37:27.019Z,1.65
2023-03-26T14:40:17.045Z,1.25
2023-03-26T14:42:44.366Z,1.90
2023-03-26T14:45:38.899Z,1.23
2023-03-26T14:48:30.660Z,1.83
2023-03-26T14:51:19.179Z,1.30
2023-03-26T14:53:49.367Z,1.27
2023-03-26T14:56:27.130Z,1.42
2023-03-26T14:59:22.378Z,2.00
2023-03-26T15:01:49.499Z,2.03
2023-03-26T15:04:19.647Z,1.58
2023-03-26T15:06:58.809Z,1.70
2023-03-26T15:09:28.729Z,1.85
2023-03-26T15:12:15.546Z,1.83
2023-03-26T15:15:15.356Z,1.77
2023-03-26T15:17:51.351Z,1.90
2023-03-26T15:20:18.807Z,1.25
2023-03-26T15:23:03.264Z,1.40
2023-03-26T15:26:13.103Z,1.63
2023-03-26T15:28:46.433Z,1.90
2023-03-26T15:31:19.770Z,1.70
2023-03-26T15:33:57.118Z,1.25
2023-03-26T15:37:02.537Z,1.80
2023-03-26T15:39:30.030Z,1.40
2023-03-26T15:41:57.220Z,1.75
2023-03-26T15:44:47.195Z,1.75
2023-03-26T15:47:20.238Z,1.60
2023-03-26T15:49:52.150Z,1.58
2023-03-26T15:52:40.574Z,1.63
2023-03-26T15:55:11.252Z,1.67
2023-03-26T15:57:48.226Z,1.30
2023-03-26T16:00:16.241Z,1.63
2023-03-26T16:03:09.928Z,1.30
2023-03-26T16:05:40.473Z,1.73
2023-03-26T16:08:23.964Z,1.40
2023-03-26T16:11:02.527Z,1.63
2023-03-26T16:13:37.952Z,2.20
2023-03-26T16:16:06.863Z,1.65
2023-03-26T16:18:34.295Z,1.95
2023-03-26T16:21:30.485Z,1.60
2023-03-26T16:24:13.357Z,1.60
2023-03-26T16:26:52.485Z,1.90
2023-03-26T16:29:22.143Z,1.15
2023-03-26T16:32:07.600Z,1.95
2023-03-26T16:34:39.010Z,1.55
2023-03-26T16:37:08.670Z,1.50
2023-03-26T16:39:40.387Z,1.52
2023-03-26T16:42:16.282Z,1.50
2023-03-26T16:44:52.111Z,1.65
2023-03-26T16:47:25.695Z,1.30
2023-03-26T16:50:10.663Z,2.13
2023-03-26T16:52:42.519Z,1.35
2023-03-26T16:55:15.799Z,1.17
2023-03-26T17:00:35.191Z,1.30
2023-03-26T17:03:13.121Z,1.55
2023-03-26T17:06:20.892Z,1.70
2023-03-26T17:08:56.877Z,1.20
2023-03-26T17:11:43.397Z,1.95
2023-03-26T17:14:17.664Z,1.23
2023-03-26T17:16:48.690Z,1.33
2023-03-26T17:19:18.557Z,1.27
2023-03-26T17:21:51.054Z,1.30
2023-03-26T17:24:36.607Z,1.33
2023-03-26T17:27:45.975Z,1.85
2023-03-26T17:30:41.039Z,1.33
2023-03-26T17:33:27.868Z,1.25
2023-03-26T17:36:13.426Z,0.98
2023-03-26T17:38:40.563Z,1.08
2023-03-26T17:41:14.779Z,1.00
2023-03-26T17:43:49.966Z,1.20
2023-03-26T17:46:23.298Z,1.27
2023-03-26T17:48:54.546Z,1.30
2023-03-26T17:51:30.844Z,1.30
2023-03-26T17:53:58.425Z,1.00
2023-03-26T17:56:28.084Z,1.30
2023-03-26T17:59:00.822Z,1.20
2023-03-26T18:01:41.304Z,1.70
2023-03-26T18:04:25.826Z,1.38
2023-03-26T18:07:30.384Z,1.20
2023-03-26T18:10:06.640Z,0.98
2023-03-26T18:12:42.846Z,1.13
2023-03-26T18:15:39.530Z,1.65
2023-03-26T18:18:13.749Z,1.30
2023-03-26T18:20:43.751Z,1.40
2023-03-26T18:23:12.932Z,1.20
2023-03-26T18:25:41.037Z,1.27
2023-03-26T18:28:08.262Z,1.13
2023-03-26T18:30:46.482Z,1.08
2023-03-26T18:33:15.269Z,1.50
2023-03-26T18:35:42.601Z,1.30
2023-03-26T18:38:14.163Z,1.38
2023-03-26T18:40:42.497Z,1.30
2023-03-26T18:43:28.888Z,1.20
2023-03-26T18:46:02.165Z,1.25
2023-03-26T18:48:29.601Z,1.08
2023-03-26T18:51:06.627Z,1.58
2023-03-26T18:53:39.340Z,1.10
2023-03-26T18:56:19.340Z,1.40
2023-03-26T18:58:50.671Z,1.02
2023-03-26T19:01:25.377Z,0.95
2023-03-26T19:03:53.579Z,1.20
2023-03-26T19:06:20.957Z,1.25
2023-03-26T19:08:48.495Z,1.17
2023-03-26T19:11:17.469Z,1.30
2023-03-26T19:13:46.355Z,1.00
2023-03-26T19:16:24.884Z,1.35
2023-03-26T19:18:52.944Z,1.20
2023-03-26T19:21:23.111Z,1.63
2023-03-26T19:23:51.267Z,1.38
2023-03-26T19:26:19.042Z,1.13
2023-03-26T19:28:51.830Z,1.08
2023-03-26T19:31:35.913Z,1.10
2023-03-26T19:34:05.035Z,1.27
2023-03-26T19:36:34.481Z,1.45
2023-03-26T19:39:02.401Z,1.27
2023-03-26T19:41:39.815Z,1.23
2023-03-26T19:44:15.825Z,1.33
2023-03-26T19:46:53.803Z,1.20
2023-03-26T19:49:28.552Z,1.27
2023-03-26T19:52:04.092Z,1.42
2023-03-26T19:54:31.419Z,0.82
2023-03-26T19:56:58.601Z,1.10
2023-03-26T19:59:25.753Z,1.10
2023-03-26T20:01:55.812Z,1.20
2023-03-26T20:04:22.951Z,0.98
2023-03-26T20:06:52.660Z,1.10
2023-03-26T20:09:21.268Z,1.08
2023-03-26T20:11:49.576Z,1.23
2023-03-26T20:14:17.787Z,0.98
2023-03-26T20:16:46.004Z,0.80
2023-03-26T20:19:14.714Z,1.02
2023-03-26T20:21:42.371Z,1.00
2023-03-26T20:24:12.518Z,1.23
2023-03-26T20:26:39.712Z,1.00
2023-03-26T20:29:06.992Z,0.93
2023-03-26T20:31:34.323Z,0.90
2023-03-26T20:34:02.628Z,1.08
2023-03-26T20:36:34.126Z,1.00
2023-03-26T20:39:06.184Z,1.10
2023-03-26T20:41:33.918Z,1.10
2023-03-26T20:44:03.520Z,1.40
2023-03-26T20:46:31.861Z,0.93
2023-03-26T20:48:59.990Z,1.38
2023-03-26T20:51:30.859Z,1.15
2023-03-26T20:53:58.017Z,1.60
2023-03-26T20:56:25.147Z,1.52
2023-03-26T20:59:09.932Z,0.85
2023-03-26T21:01:38.667Z,0.80
2023-03-26T21:04:06.350Z,1.10
2023-03-26T21:06:33.592Z,1.20
2023-03-26T21:09:00.938Z,1.05
2023-03-26T21:11:46.366Z,1.33
2023-03-26T21:14:17.568Z,1.25
2023-03-26T21:16:44.827Z,1.15
2023-03-26T21:19:12.300Z,1.77
2023-03-26T21:21:47.801Z,1.05
2023-03-26T21:24:20.142Z,1.20
2023-03-26T21:27:02.580Z,1.20
2023-03-26T21:29:29.822Z,1.50
2023-03-26T21:31:57.128Z,1.58
2023-03-26T21:34:24.388Z,1.23
2023-03-26T21:36:51.752Z,1.55
2023-03-26T21:39:19.047Z,1.27
2023-03-26T21:42:04.933Z,1.13
2023-03-26T21:44:33.557Z,1.40
2023-03-26T21:47:01.171Z,1.10
2023-03-26T21:49:28.519Z,1.27
2023-03-26T21:51:55.849Z,1.50
2023-03-26T21:54:23.069Z,0.98
2023-03-26T21:56:53.827Z,1.25
2023-03-26T21:59:33.699Z,1.10
2023-03-26T22:02:10.894Z,1.00
2023-03-26T22:04:54.463Z,1.23
2023-03-26T22:07:24.537Z,1.40
2023-03-26T22:09:52.076Z,1.17
2023-03-26T22:12:19.196Z,0.95
2023-03-26T22:14:46.313Z,1.30
2023-03-26T22:17:13.486Z,0.90
2023-03-26T22:19:40.707Z,1.15
2023-03-26T22:22:07.785Z,0.93
2023-03-26T22:24:34.844Z,0.90
2023-03-26T22:27:01.954Z,0.90
2023-03-26T22:29:29.150Z,1.15
2023-03-26T22:31:56.297Z,1.40
2023-03-26T22:34:23.568Z,0.90
2023-03-26T22:36:50.658Z,1.15
2023-03-26T22:39:18.168Z,0.93
2023-03-26T22:41:45.318Z,1.25
2023-03-26T22:44:19.763Z,1.20
2023-03-26T22:46:49.319Z,1.30
2023-03-26T22:49:16.789Z,1.33
2023-03-26T22:51:44.373Z,0.90
2023-03-26T22:54:11.450Z,1.48
2023-03-26T22:56:38.630Z,1.33
2023-03-26T22:59:05.855Z,1.13
2023-03-26T23:01:33.052Z,1.13
2023-03-26T23:04:00.211Z,0.75
2023-03-26T23:06:27.355Z,0.93
2023-03-26T23:08:56.863Z,0.77
2023-03-26T23:11:24.219Z,0.98
2023-03-26T23:13:51.708Z,0.90
2023-03-26T23:16:21.441Z,0.85
2023-03-26T23:18:48.935Z,0.98
2023-03-26T23:21:18.082Z,1.55
2023-03-26T23:23:45.607Z,1.17
2023-03-26T23:26:12.854Z,1.35
2023-03-26T23:28:40.923Z,0.90
2023-03-26T23:31:09.303Z,1.25
2023-03-26T23:33:37.251Z,1.05
2023-03-26T23:36:08.768Z,1.27
2023-03-26T23:38:43.432Z,1.00
2023-03-26T23:41:14.808Z,1.25
2023-03-26T23:43:54.358Z,1.23
2023-03-26T23:46:23.448Z,1.20
2023-03-26T23:48:51.116Z,1.35
2023-03-26T23:51:21.654Z,0.88
2023-03-26T23:53:49.321Z,0.90
2023-03-26T23:56:17.137Z,1.17
2023-03-26T23:58:44.385Z,1.20
